sensor_id;sensor_type;location;lat;lon;timestamp;P1;durP1;ratioP1;P2;durP2;ratioP2
10479;SDS011;12789;42.610;23.040;2023-04-03T00:01:59;25.93;;;11.33;;
10479;SDS011;12789;42.610;23.040;2023-04-03T00:04:26;19.07;;;10.80;;
10479;SDS011;12789;42.610;23.040;2023-04-03T00:06:52;21.07;;;11.07;;
10479;SDS011;12789;42.610;23.040;2023-04-03T00:09:19;26.97;;;10.70;;
10479;SDS011;12789;42.610;23.040;2023-04-03T00:11:45;21.40;;;10.67;;
10479;SDS011;12789;42.610;23.040;2023-04-03T00:14:12;18.37;;;10.83;;
10479;SDS011;12789;42.610;23.040;2023-04-03T00:16:38;18.73;;;9.93;;
10479;SDS011;12789;42.610;23.040;2023-04-03T00:19:06;21.73;;;11.23;;
10479;SDS011;12789;42.610;23.040;2023-04-03T00:21:33;19.27;;;10.17;;
10479;SDS011;12789;42.610;23.040;2023-04-03T00:23:59;20.00;;;11.80;;
10479;SDS011;12789;42.610;23.040;2023-04-03T00:26:26;20.33;;;11.20;;
10479;SDS011;12789;42.610;23.040;2023-04-03T00:28:52;25.47;;;11.67;;
10479;SDS011;12789;42.610;23.040;2023-04-03T00:31:19;21.07;;;11.40;;
10479;SDS011;12789;42.610;23.040;2023-04-03T00:33:45;24.87;;;12.10;;
10479;SDS011;12789;42.610;23.040;2023-04-03T00:36:13;29.93;;;13.70;;
10479;SDS011;12789;42.610;23.040;2023-04-03T00:38:40;27.07;;;14.33;;
10479;SDS011;12789;42.610;23.040;2023-04-03T00:41:07;25.30;;;11.97;;
10479;SDS011;12789;42.610;23.040;2023-04-03T00:43:33;28.50;;;12.73;;
10479;SDS011;12789;42.610;23.040;2023-04-03T00:46:00;17.67;;;11.57;;
10479;SDS011;12789;42.610;23.040;2023-04-03T00:48:28;24.63;;;11.73;;
10479;SDS011;12789;42.610;23.040;2023-04-03T00:50:55;20.23;;;10.53;;
10479;SDS011;12789;42.610;23.040;2023-04-03T00:53:24;19.23;;;10.40;;
10479;SDS011;12789;42.610;23.040;2023-04-03T00:55:51;22.30;;;11.50;;
10479;SDS011;12789;42.610;23.040;2023-04-03T00:58:19;20.20;;;10.47;;
10479;SDS011;12789;42.610;23.040;2023-04-03T01:00:48;23.63;;;11.77;;
10479;SDS011;12789;42.610;23.040;2023-04-03T01:03:15;24.97;;;13.73;;
10479;SDS011;12789;42.610;23.040;2023-04-03T01:05:41;27.00;;;14.43;;
10479;SDS011;12789;42.610;23.040;2023-04-03T01:08:08;23.53;;;13.63;;
10479;SDS011;12789;42.610;23.040;2023-04-03T01:10:36;25.70;;;11.47;;
10479;SDS011;12789;42.610;23.040;2023-04-03T01:13:02;22.93;;;11.50;;
10479;SDS011;12789;42.610;23.040;2023-04-03T01:15:43;19.30;;;10.30;;
10479;SDS011;12789;42.610;23.040;2023-04-03T01:18:09;21.13;;;11.10;;
10479;SDS011;12789;42.610;23.040;2023-04-03T01:20:50;21.87;;;10.97;;
10479;SDS011;12789;42.610;23.040;2023-04-03T01:23:29;22.73;;;10.83;;
10479;SDS011;12789;42.610;23.040;2023-04-03T01:25:59;20.03;;;10.53;;
10479;SDS011;12789;42.610;23.040;2023-04-03T01:28:27;19.67;;;10.27;;
10479;SDS011;12789;42.610;23.040;2023-04-03T01:30:56;21.87;;;10.30;;
10479;SDS011;12789;42.610;23.040;2023-04-03T01:33:26;20.57;;;9.53;;
10479;SDS011;12789;42.610;23.040;2023-04-03T01:35:53;20.83;;;10.50;;
10479;SDS011;12789;42.610;23.040;2023-04-03T01:38:20;28.33;;;13.80;;
10479;SDS011;12789;42.610;23.040;2023-04-03T01:40:46;31.57;;;14.17;;
10479;SDS011;12789;42.610;23.040;2023-04-03T01:43:13;25.27;;;13.37;;
10479;SDS011;12789;42.610;23.040;2023-04-03T01:45:39;29.50;;;13.03;;
10479;SDS011;12789;42.610;23.040;2023-04-03T01:48:06;24.23;;;11.77;;
10479;SDS011;12789;42.610;23.040;2023-04-03T01:50:34;18.67;;;10.67;;
10479;SDS011;12789;42.610;23.040;2023-04-03T01:53:00;21.23;;;11.57;;
10479;SDS011;12789;42.610;23.040;2023-04-03T01:55:27;22.93;;;10.93;;
10479;SDS011;12789;42.610;23.040;2023-04-03T01:57:53;18.60;;;10.70;;
10479;SDS011;12789;42.610;23.040;2023-04-03T02:00:20;22.07;;;11.33;;
10479;SDS011;12789;42.610;23.040;2023-04-03T02:02:47;25.73;;;11.37;;
10479;SDS011;12789;42.610;23.040;2023-04-03T02:05:13;25.10;;;12.63;;
10479;SDS011;12789;42.610;23.040;2023-04-03T02:07:41;21.33;;;11.10;;
10479;SDS011;12789;42.610;23.040;2023-04-03T02:10:08;24.80;;;10.43;;
10479;SDS011;12789;42.610;23.040;2023-04-03T02:12:34;17.27;;;9.53;;
10479;SDS011;12789;42.610;23.040;2023-04-03T02:15:01;14.83;;;9.60;;
10479;SDS011;12789;42.610;23.040;2023-04-03T02:17:27;22.73;;;9.00;;
10479;SDS011;12789;42.610;23.040;2023-04-03T02:19:54;15.93;;;8.70;;
10479;SDS011;12789;42.610;23.040;2023-04-03T02:22:20;14.20;;;9.17;;
10479;SDS011;12789;42.610;23.040;2023-04-03T02:24:48;19.60;;;10.20;;
10479;SDS011;12789;42.610;23.040;2023-04-03T02:27:15;20.53;;;10.17;;
10479;SDS011;12789;42.610;23.040;2023-04-03T02:29:42;25.37;;;11.50;;
10479;SDS011;12789;42.610;23.040;2023-04-03T02:32:08;22.93;;;11.27;;
10479;SDS011;12789;42.610;23.040;2023-04-03T02:34:35;29.27;;;11.80;;
10479;SDS011;12789;42.610;23.040;2023-04-03T02:37:01;19.20;;;10.67;;
10479;SDS011;12789;42.610;23.040;2023-04-03T02:39:28;26.97;;;11.03;;
10479;SDS011;12789;42.610;23.040;2023-04-03T02:41:56;25.33;;;11.47;;
10479;SDS011;12789;42.610;23.040;2023-04-03T02:44:22;25.47;;;12.13;;
10479;SDS011;12789;42.610;23.040;2023-04-03T02:46:49;28.10;;;12.37;;
10479;SDS011;12789;42.610;23.040;2023-04-03T02:49:16;30.03;;;12.90;;
10479;SDS011;12789;42.610;23.040;2023-04-03T02:51:42;27.53;;;12.27;;
10479;SDS011;12789;42.610;23.040;2023-04-03T02:54:09;29.40;;;12.60;;
10479;SDS011;12789;42.610;23.040;2023-04-03T02:56:35;29.67;;;13.43;;
10479;SDS011;12789;42.610;23.040;2023-04-03T02:59:03;27.03;;;13.10;;
10479;SDS011;12789;42.610;23.040;2023-04-03T03:01:30;30.47;;;13.63;;
10479;SDS011;12789;42.610;23.040;2023-04-03T03:03:57;30.93;;;13.90;;
10479;SDS011;12789;42.610;23.040;2023-04-03T03:06:24;25.17;;;12.77;;
10479;SDS011;12789;42.610;23.040;2023-04-03T03:08:50;23.47;;;11.80;;
10479;SDS011;12789;42.610;23.040;2023-04-03T03:11:17;23.30;;;11.03;;
10479;SDS011;12789;42.610;23.040;2023-04-03T03:13:43;16.27;;;9.67;;
10479;SDS011;12789;42.610;23.040;2023-04-03T03:16:11;20.20;;;9.57;;
10479;SDS011;12789;42.610;23.040;2023-04-03T03:18:38;20.90;;;9.30;;
10479;SDS011;12789;42.610;23.040;2023-04-03T03:21:05;16.37;;;9.60;;
10479;SDS011;12789;42.610;23.040;2023-04-03T03:23:31;22.23;;;9.97;;
10479;SDS011;12789;42.610;23.040;2023-04-03T03:25:58;17.83;;;9.90;;
10479;SDS011;12789;42.610;23.040;2023-04-03T03:28:25;20.20;;;10.83;;
10479;SDS011;12789;42.610;23.040;2023-04-03T03:30:52;22.30;;;10.43;;
10479;SDS011;12789;42.610;23.040;2023-04-03T03:33:20;25.47;;;10.60;;
10479;SDS011;12789;42.610;23.040;2023-04-03T03:35:46;19.93;;;10.90;;
10479;SDS011;12789;42.610;23.040;2023-04-03T03:38:13;19.73;;;10.03;;
10479;SDS011;12789;42.610;23.040;2023-04-03T03:40:39;19.17;;;11.37;;
10479;SDS011;12789;42.610;23.040;2023-04-03T03:43:06;21.00;;;12.00;;
10479;SDS011;12789;42.610;23.040;2023-04-03T03:45:33;27.37;;;13.23;;
10479;SDS011;12789;42.610;23.040;2023-04-03T03:47:59;23.80;;;13.70;;
10479;SDS011;12789;42.610;23.040;2023-04-03T03:50:27;32.90;;;14.80;;
10479;SDS011;12789;42.610;23.040;2023-04-03T03:52:53;33.33;;;14.53;;
10479;SDS011;12789;42.610;23.040;2023-04-03T03:55:20;36.17;;;15.10;;
10479;SDS011;12789;42.610;23.040;2023-04-03T03:57:46;37.80;;;15.50;;
10479;SDS011;12789;42.610;23.040;2023-04-03T04:00:13;29.53;;;14.90;;
10479;SDS011;12789;42.610;23.040;2023-04-03T04:02:40;30.77;;;15.23;;
10479;SDS011;12789;42.610;23.040;2023-04-03T04:05:07;32.20;;;14.83;;
10479;SDS011;12789;42.610;23.040;2023-04-03T04:07:35;26.07;;;14.83;;
10479;SDS011;12789;42.610;23.040;2023-04-03T04:10:01;30.93;;;15.10;;
10479;SDS011;12789;42.610;23.040;2023-04-03T04:12:28;36.47;;;16.00;;
10479;SDS011;12789;42.610;23.040;2023-04-03T04:14:55;27.70;;;14.90;;
10479;SDS011;12789;42.610;23.040;2023-04-03T04:17:23;26.63;;;14.67;;
10479;SDS011;12789;42.610;23.040;2023-04-03T04:19:50;29.93;;;15.13;;
10479;SDS011;12789;42.610;23.040;2023-04-03T04:22:16;34.47;;;15.17;;
10479;SDS011;12789;42.610;23.040;2023-04-03T04:24:44;22.90;;;14.10;;
10479;SDS011;12789;42.610;23.040;2023-04-03T04:27:11;31.37;;;15.63;;
10479;SDS011;12789;42.610;23.040;2023-04-03T04:29:38;31.97;;;15.87;;
10479;SDS011;12789;42.610;23.040;2023-04-03T04:32:04;31.77;;;16.30;;
10479;SDS011;12789;42.610;23.040;2023-04-03T04:34:31;27.70;;;13.80;;
10479;SDS011;12789;42.610;23.040;2023-04-03T04:36:57;22.50;;;12.93;;
10479;SDS011;12789;42.610;23.040;2023-04-03T04:39:24;26.53;;;14.43;;
10479;SDS011;12789;42.610;23.040;2023-04-03T04:41:52;26.97;;;13.77;;
10479;SDS011;12789;42.610;23.040;2023-04-03T04:44:18;24.93;;;14.23;;
10479;SDS011;12789;42.610;23.040;2023-04-03T04:46:45;26.63;;;13.83;;
10479;SDS011;12789;42.610;23.040;2023-04-03T04:49:11;32.83;;;13.30;;
10479;SDS011;12789;42.610;23.040;2023-04-03T04:51:40;30.33;;;14.40;;
10479;SDS011;12789;42.610;23.040;2023-04-03T04:54:06;34.77;;;14.87;;
10479;SDS011;12789;42.610;23.040;2023-04-03T04:56:33;35.20;;;15.00;;
10479;SDS011;12789;42.610;23.040;2023-04-03T04:59:01;31.80;;;15.00;;
10479;SDS011;12789;42.610;23.040;2023-04-03T05:01:27;32.40;;;15.40;;
10479;SDS011;12789;42.610;23.040;2023-04-03T05:03:54;36.00;;;15.23;;
10479;SDS011;12789;42.610;23.040;2023-04-03T05:06:20;37.60;;;14.63;;
10479;SDS011;12789;42.610;23.040;2023-04-03T05:08:47;35.00;;;15.13;;
10479;SDS011;12789;42.610;23.040;2023-04-03T05:11:13;33.10;;;15.40;;
10479;SDS011;12789;42.610;23.040;2023-04-03T05:13:40;33.63;;;16.10;;
10479;SDS011;12789;42.610;23.040;2023-04-03T05:16:08;40.17;;;17.70;;
10479;SDS011;12789;42.610;23.040;2023-04-03T05:18:34;37.53;;;18.20;;
10479;SDS011;12789;42.610;23.040;2023-04-03T05:21:01;30.57;;;18.27;;
10479;SDS011;12789;42.610;23.040;2023-04-03T05:23:27;35.53;;;19.33;;
10479;SDS011;12789;42.610;23.040;2023-04-03T05:25:54;50.73;;;22.07;;
10479;SDS011;12789;42.610;23.040;2023-04-03T05:28:20;40.47;;;20.47;;
10479;SDS011;12789;42.610;23.040;2023-04-03T05:30:52;39.77;;;20.30;;
10479;SDS011;12789;42.610;23.040;2023-04-03T05:33:20;48.93;;;24.43;;
10479;SDS011;12789;42.610;23.040;2023-04-03T05:35:47;61.03;;;24.57;;
10479;SDS011;12789;42.610;23.040;2023-04-03T05:38:14;50.93;;;20.70;;
10479;SDS011;12789;42.610;23.040;2023-04-03T05:40:40;40.13;;;16.87;;
10479;SDS011;12789;42.610;23.040;2023-04-03T05:43:07;33.30;;;16.77;;
10479;SDS011;12789;42.610;23.040;2023-04-03T05:45:33;31.67;;;16.73;;
10479;SDS011;12789;42.610;23.040;2023-04-03T05:48:00;38.23;;;16.47;;
10479;SDS011;12789;42.610;23.040;2023-04-03T05:50:28;37.37;;;16.87;;
10479;SDS011;12789;42.610;23.040;2023-04-03T05:52:55;36.47;;;15.67;;
10479;SDS011;12789;42.610;23.040;2023-04-03T05:55:24;33.87;;;15.40;;
10479;SDS011;12789;42.610;23.040;2023-04-03T05:57:53;42.20;;;21.20;;
10479;SDS011;12789;42.610;23.040;2023-04-03T06:00:20;49.27;;;18.67;;
10479;SDS011;12789;42.610;23.040;2023-04-03T06:02:47;27.77;;;16.77;;
10479;SDS011;12789;42.610;23.040;2023-04-03T06:05:14;30.53;;;16.40;;
10479;SDS011;12789;42.610;23.040;2023-04-03T06:07:42;53.80;;;22.43;;
10479;SDS011;12789;42.610;23.040;2023-04-03T06:10:10;55.67;;;30.27;;
10479;SDS011;12789;42.610;23.040;2023-04-03T06:12:37;36.23;;;17.40;;
10479;SDS011;12789;42.610;23.040;2023-04-03T06:15:04;35.43;;;16.53;;
10479;SDS011;12789;42.610;23.040;2023-04-03T06:17:31;35.43;;;17.67;;
10479;SDS011;12789;42.610;23.040;2023-04-03T06:19:57;39.10;;;18.37;;
10479;SDS011;12789;42.610;23.040;2023-04-03T06:22:24;38.17;;;18.70;;
10479;SDS011;12789;42.610;23.040;2023-04-03T06:24:52;47.33;;;19.73;;
10479;SDS011;12789;42.610;23.040;2023-04-03T06:27:19;40.00;;;19.60;;
10479;SDS011;12789;42.610;23.040;2023-04-03T06:29:46;44.33;;;21.00;;
10479;SDS011;12789;42.610;23.040;2023-04-03T06:32:13;47.50;;;22.67;;
10479;SDS011;12789;42.610;23.040;2023-04-03T06:34:40;39.50;;;21.87;;
10479;SDS011;12789;42.610;23.040;2023-04-03T06:37:09;44.23;;;21.00;;
10479;SDS011;12789;42.610;23.040;2023-04-03T06:39:36;38.07;;;18.83;;
10479;SDS011;12789;42.610;23.040;2023-04-03T06:42:04;48.67;;;18.07;;
10479;SDS011;12789;42.610;23.040;2023-04-03T06:44:30;33.70;;;17.90;;
10479;SDS011;12789;42.610;23.040;2023-04-03T06:46:59;35.67;;;16.63;;
10479;SDS011;12789;42.610;23.040;2023-04-03T06:49:25;29.87;;;16.00;;
10479;SDS011;12789;42.610;23.040;2023-04-03T06:51:52;29.83;;;13.97;;
10479;SDS011;12789;42.610;23.040;2023-04-03T06:54:19;30.40;;;13.87;;
10479;SDS011;12789;42.610;23.040;2023-04-03T06:56:46;22.10;;;13.07;;
10479;SDS011;12789;42.610;23.040;2023-04-03T06:59:14;25.20;;;13.33;;
10479;SDS011;12789;42.610;23.040;2023-04-03T07:01:40;26.93;;;13.13;;
10479;SDS011;12789;42.610;23.040;2023-04-03T07:04:07;16.77;;;9.40;;
10479;SDS011;12789;42.610;23.040;2023-04-03T07:06:34;14.90;;;8.17;;
10479;SDS011;12789;42.610;23.040;2023-04-03T07:09:01;10.80;;;6.33;;
10479;SDS011;12789;42.610;23.040;2023-04-03T07:11:28;9.37;;;4.93;;
10479;SDS011;12789;42.610;23.040;2023-04-03T07:13:55;7.30;;;6.60;;
10479;SDS011;12789;42.610;23.040;2023-04-03T07:16:27;11.97;;;7.83;;
10479;SDS011;12789;42.610;23.040;2023-04-03T07:18:55;5.50;;;4.50;;
10479;SDS011;12789;42.610;23.040;2023-04-03T07:21:22;6.33;;;4.03;;
10479;SDS011;12789;42.610;23.040;2023-04-03T07:23:48;4.20;;;3.90;;
10479;SDS011;12789;42.610;23.040;2023-04-03T07:26:15;5.53;;;3.20;;
10479;SDS011;12789;42.610;23.040;2023-04-03T07:28:41;3.80;;;2.97;;
10479;SDS011;12789;42.610;23.040;2023-04-03T07:31:10;2.87;;;2.67;;
10479;SDS011;12789;42.610;23.040;2023-04-03T07:33:39;3.30;;;3.00;;
10479;SDS011;12789;42.610;23.040;2023-04-03T07:36:06;4.03;;;3.47;;
10479;SDS011;12789;42.610;23.040;2023-04-03T07:38:33;2.67;;;1.70;;
10479;SDS011;12789;42.610;23.040;2023-04-03T07:41:00;1.80;;;1.70;;
10479;SDS011;12789;42.610;23.040;2023-04-03T07:43:27;2.80;;;2.00;;
10479;SDS011;12789;42.610;23.040;2023-04-03T07:45:53;2.77;;;2.23;;
10479;SDS011;12789;42.610;23.040;2023-04-03T07:48:20;2.80;;;2.13;;
10479;SDS011;12789;42.610;23.040;2023-04-03T07:50:49;5.23;;;1.97;;
10479;SDS011;12789;42.610;23.040;2023-04-03T07:53:16;3.03;;;2.60;;
10479;SDS011;12789;42.610;23.040;2023-04-03T07:55:45;2.97;;;1.83;;
10479;SDS011;12789;42.610;23.040;2023-04-03T07:58:13;3.07;;;2.20;;
10479;SDS011;12789;42.610;23.040;2023-04-03T08:00:40;6.50;;;2.30;;
10479;SDS011;12789;42.610;23.040;2023-04-03T08:03:09;6.30;;;1.90;;
10479;SDS011;12789;42.610;23.040;2023-04-03T08:05:36;7.43;;;2.10;;
10479;SDS011;12789;42.610;23.040;2023-04-03T08:08:08;5.27;;;2.10;;
10479;SDS011;12789;42.610;23.040;2023-04-03T08:10:34;2.13;;;1.77;;
10479;SDS011;12789;42.610;23.040;2023-04-03T08:13:03;4.10;;;2.43;;
10479;SDS011;12789;42.610;23.040;2023-04-03T08:15:32;4.83;;;3.00;;
10479;SDS011;12789;42.610;23.040;2023-04-03T08:17:59;4.43;;;2.20;;
10479;SDS011;12789;42.610;23.040;2023-04-03T08:20:26;1.63;;;1.53;;
10479;SDS011;12789;42.610;23.040;2023-04-03T08:22:53;3.97;;;1.80;;
10479;SDS011;12789;42.610;23.040;2023-04-03T08:25:22;4.57;;;2.43;;
10479;SDS011;12789;42.610;23.040;2023-04-03T08:27:51;6.33;;;2.40;;
10479;SDS011;12789;42.610;23.040;2023-04-03T08:30:22;3.43;;;1.70;;
10479;SDS011;12789;42.610;23.040;2023-04-03T08:32:49;2.10;;;1.87;;
10479;SDS011;12789;42.610;23.040;2023-04-03T08:35:18;4.33;;;2.70;;
10479;SDS011;12789;42.610;23.040;2023-04-03T08:37:46;3.67;;;2.43;;
10479;SDS011;12789;42.610;23.040;2023-04-03T08:40:16;2.47;;;2.27;;
10479;SDS011;12789;42.610;23.040;2023-04-03T08:42:51;1.80;;;1.70;;
10479;SDS011;12789;42.610;23.040;2023-04-03T08:45:38;2.28;;;2.05;;
10479;SDS011;12789;42.610;23.040;2023-04-03T08:48:13;1.60;;;1.50;;
10479;SDS011;12789;42.610;23.040;2023-04-03T08:50:42;1.30;;;1.20;;
10479;SDS011;12789;42.610;23.040;2023-04-03T08:53:19;1.53;;;1.43;;
10479;SDS011;12789;42.610;23.040;2023-04-03T08:55:47;4.87;;;1.43;;
10479;SDS011;12789;42.610;23.040;2023-04-03T08:58:16;1.47;;;1.20;;
10479;SDS011;12789;42.610;23.040;2023-04-03T09:00:44;6.00;;;1.40;;
10479;SDS011;12789;42.610;23.040;2023-04-03T09:03:13;3.90;;;1.70;;
10479;SDS011;12789;42.610;23.040;2023-04-03T09:05:49;1.50;;;1.40;;
10479;SDS011;12789;42.610;23.040;2023-04-03T09:08:24;3.77;;;1.50;;
10479;SDS011;12789;42.610;23.040;2023-04-03T09:11:04;2.83;;;1.50;;
10479;SDS011;12789;42.610;23.040;2023-04-03T09:13:42;3.20;;;1.03;;
10479;SDS011;12789;42.610;23.040;2023-04-03T09:16:28;2.10;;;1.30;;
10479;SDS011;12789;42.610;23.040;2023-04-03T09:19:19;6.10;;;1.87;;
10479;SDS011;12789;42.610;23.040;2023-04-03T09:21:50;2.87;;;2.10;;
10479;SDS011;12789;42.610;23.040;2023-04-03T09:24:24;3.80;;;3.35;;
10479;SDS011;12789;42.610;23.040;2023-04-03T09:26:51;1.90;;;1.70;;
10479;SDS011;12789;42.610;23.040;2023-04-03T09:29:27;7.57;;;2.10;;
10479;SDS011;12789;42.610;23.040;2023-04-03T09:31:56;3.65;;;1.55;;
10479;SDS011;12789;42.610;23.040;2023-04-03T09:34:25;6.00;;;1.80;;
10479;SDS011;12789;42.610;23.040;2023-04-03T09:36:53;1.70;;;1.60;;
10479;SDS011;12789;42.610;23.040;2023-04-03T09:39:24;1.60;;;1.50;;
10479;SDS011;12789;42.610;23.040;2023-04-03T09:42:00;2.70;;;2.10;;
10479;SDS011;12789;42.610;23.040;2023-04-03T09:44:29;2.90;;;2.60;;
10479;SDS011;12789;42.610;23.040;2023-04-03T09:46:58;3.07;;;2.40;;
10479;SDS011;12789;42.610;23.040;2023-04-03T09:49:37;4.87;;;2.63;;
10479;SDS011;12789;42.610;23.040;2023-04-03T09:52:23;4.23;;;2.30;;
10479;SDS011;12789;42.610;23.040;2023-04-03T09:54:50;4.20;;;1.98;;
10479;SDS011;12789;42.610;23.040;2023-04-03T09:57:21;2.92;;;2.25;;
10479;SDS011;12789;42.610;23.040;2023-04-03T10:02:34;3.95;;;2.90;;
10479;SDS011;12789;42.610;23.040;2023-04-03T10:05:05;13.23;;;3.20;;
10479;SDS011;12789;42.610;23.040;2023-04-03T10:08:04;4.77;;;2.63;;
10479;SDS011;12789;42.610;23.040;2023-04-03T10:10:36;3.45;;;3.15;;
10479;SDS011;12789;42.610;23.040;2023-04-03T10:13:20;4.30;;;3.00;;
10479;SDS011;12789;42.610;23.040;2023-04-03T10:15:48;8.90;;;3.00;;
10479;SDS011;12789;42.610;23.040;2023-04-03T10:18:27;4.13;;;2.63;;
10479;SDS011;12789;42.610;23.040;2023-04-03T10:21:02;2.58;;;2.28;;
10479;SDS011;12789;42.610;23.040;2023-04-03T10:23:40;3.13;;;2.28;;
10479;SDS011;12789;42.610;23.040;2023-04-03T10:26:15;7.07;;;2.85;;
10479;SDS011;12789;42.610;23.040;2023-04-03T10:28:44;3.33;;;2.47;;
10479;SDS011;12789;42.610;23.040;2023-04-03T10:31:13;7.68;;;3.60;;
10479;SDS011;12789;42.610;23.040;2023-04-03T10:33:47;4.63;;;3.95;;
10479;SDS011;12789;42.610;23.040;2023-04-03T10:36:19;6.07;;;4.22;;
10479;SDS011;12789;42.610;23.040;2023-04-03T10:38:48;6.22;;;4.18;;
10479;SDS011;12789;42.610;23.040;2023-04-03T10:41:17;6.27;;;4.90;;
10479;SDS011;12789;42.610;23.040;2023-04-03T10:43:50;7.30;;;3.97;;
10479;SDS011;12789;42.610;23.040;2023-04-03T10:46:20;9.00;;;5.20;;
10479;SDS011;12789;42.610;23.040;2023-04-03T10:48:55;9.73;;;6.17;;
10479;SDS011;12789;42.610;23.040;2023-04-03T10:51:26;4.93;;;4.17;;
10479;SDS011;12789;42.610;23.040;2023-04-03T10:53:55;10.00;;;4.97;;
10479;SDS011;12789;42.610;23.040;2023-04-03T10:56:26;14.10;;;8.17;;
10479;SDS011;12789;42.610;23.040;2023-04-03T10:58:56;8.20;;;5.30;;
10479;SDS011;12789;42.610;23.040;2023-04-03T11:01:26;17.20;;;7.43;;
10479;SDS011;12789;42.610;23.040;2023-04-03T11:03:56;8.77;;;5.10;;
10479;SDS011;12789;42.610;23.040;2023-04-03T11:06:24;13.57;;;7.57;;
10479;SDS011;12789;42.610;23.040;2023-04-03T11:08:52;10.40;;;5.83;;
10479;SDS011;12789;42.610;23.040;2023-04-03T11:11:22;8.67;;;5.30;;
10479;SDS011;12789;42.610;23.040;2023-04-03T11:13:53;6.75;;;4.68;;
10479;SDS011;12789;42.610;23.040;2023-04-03T11:16:21;6.95;;;3.85;;
10479;SDS011;12789;42.610;23.040;2023-04-03T11:18:49;2.70;;;2.40;;
10479;SDS011;12789;42.610;23.040;2023-04-03T11:21:21;3.67;;;2.10;;
10479;SDS011;12789;42.610;23.040;2023-04-03T11:23:49;7.85;;;4.30;;
10479;SDS011;12789;42.610;23.040;2023-04-03T11:26:18;4.10;;;3.10;;
10479;SDS011;12789;42.610;23.040;2023-04-03T11:28:45;6.25;;;3.63;;
10479;SDS011;12789;42.610;23.040;2023-04-03T11:31:15;3.00;;;2.70;;
10479;SDS011;12789;42.610;23.040;2023-04-03T11:33:46;5.10;;;3.77;;
10479;SDS011;12789;42.610;23.040;2023-04-03T11:36:18;6.03;;;4.27;;
10479;SDS011;12789;42.610;23.040;2023-04-03T11:38:47;3.35;;;3.03;;
10479;SDS011;12789;42.610;23.040;2023-04-03T11:41:16;3.75;;;2.97;;
10479;SDS011;12789;42.610;23.040;2023-04-03T11:43:43;5.40;;;2.78;;
10479;SDS011;12789;42.610;23.040;2023-04-03T11:46:21;7.30;;;2.93;;
10479;SDS011;12789;42.610;23.040;2023-04-03T11:48:49;5.65;;;3.65;;
10479;SDS011;12789;42.610;23.040;2023-04-03T11:51:38;5.50;;;4.00;;
10479;SDS011;12789;42.610;23.040;2023-04-03T11:56:52;5.13;;;3.93;;
10479;SDS011;12789;42.610;23.040;2023-04-03T11:59:22;7.53;;;4.40;;
10479;SDS011;12789;42.610;23.040;2023-04-03T12:01:49;7.97;;;4.60;;
10479;SDS011;12789;42.610;23.040;2023-04-03T12:04:17;4.00;;;3.60;;
10479;SDS011;12789;42.610;23.040;2023-04-03T12:06:59;3.37;;;2.60;;
10479;SDS011;12789;42.610;23.040;2023-04-03T12:09:27;9.77;;;4.77;;
10479;SDS011;12789;42.610;23.040;2023-04-03T12:11:57;6.57;;;4.57;;
10479;SDS011;12789;42.610;23.040;2023-04-03T12:14:26;5.57;;;3.83;;
10479;SDS011;12789;42.610;23.040;2023-04-03T12:16:54;9.93;;;5.63;;
10479;SDS011;12789;42.610;23.040;2023-04-03T12:19:33;7.87;;;4.60;;
10479;SDS011;12789;42.610;23.040;2023-04-03T12:22:13;7.10;;;4.30;;
10479;SDS011;12789;42.610;23.040;2023-04-03T12:24:41;10.67;;;5.73;;
10479;SDS011;12789;42.610;23.040;2023-04-03T12:27:13;9.83;;;5.47;;
10479;SDS011;12789;42.610;23.040;2023-04-03T12:29:43;9.93;;;4.67;;
10479;SDS011;12789;42.610;23.040;2023-04-03T12:32:15;4.17;;;3.63;;
10479;SDS011;12789;42.610;23.040;2023-04-03T12:34:50;3.47;;;3.17;;
10479;SDS011;12789;42.610;23.040;2023-04-03T12:37:22;3.50;;;3.10;;
10479;SDS011;12789;42.610;23.040;2023-04-03T12:39:52;4.00;;;3.60;;
10479;SDS011;12789;42.610;23.040;2023-04-03T12:42:26;6.17;;;4.40;;
10479;SDS011;12789;42.610;23.040;2023-04-03T12:45:00;4.10;;;3.30;;
10479;SDS011;12789;42.610;23.040;2023-04-03T12:47:31;3.03;;;2.80;;
10479;SDS011;12789;42.610;23.040;2023-04-03T12:50:03;3.63;;;3.07;;
10479;SDS011;12789;42.610;23.040;2023-04-03T12:52:35;4.60;;;3.50;;
10479;SDS011;12789;42.610;23.040;2023-04-03T12:55:04;3.47;;;3.17;;
10479;SDS011;12789;42.610;23.040;2023-04-03T12:57:39;2.30;;;1.90;;
10479;SDS011;12789;42.610;23.040;2023-04-03T13:00:18;3.70;;;2.77;;
10479;SDS011;12789;42.610;23.040;2023-04-03T13:02:45;4.00;;;3.27;;
10479;SDS011;12789;42.610;23.040;2023-04-03T13:05:13;2.60;;;2.00;;
10479;SDS011;12789;42.610;23.040;2023-04-03T13:07:42;5.53;;;3.13;;
10479;SDS011;12789;42.610;23.040;2023-04-03T13:10:19;2.90;;;2.20;;
10479;SDS011;12789;42.610;23.040;2023-04-03T13:12:48;4.43;;;3.10;;
10479;SDS011;12789;42.610;23.040;2023-04-03T13:15:17;3.20;;;2.63;;
10479;SDS011;12789;42.610;23.040;2023-04-03T13:17:44;4.10;;;3.17;;
10479;SDS011;12789;42.610;23.040;2023-04-03T13:20:12;3.07;;;2.47;;
10479;SDS011;12789;42.610;23.040;2023-04-03T13:22:40;4.70;;;3.90;;
10479;SDS011;12789;42.610;23.040;2023-04-03T13:25:09;4.00;;;3.13;;
10479;SDS011;12789;42.610;23.040;2023-04-03T13:27:37;3.80;;;3.40;;
10479;SDS011;12789;42.610;23.040;2023-04-03T13:30:06;3.47;;;3.00;;
10479;SDS011;12789;42.610;23.040;2023-04-03T13:32:33;3.07;;;2.77;;
10479;SDS011;12789;42.610;23.040;2023-04-03T13:35:00;3.30;;;2.93;;
10479;SDS011;12789;42.610;23.040;2023-04-03T13:37:30;2.87;;;2.67;;
10479;SDS011;12789;42.610;23.040;2023-04-03T13:40:01;6.53;;;2.40;;
10479;SDS011;12789;42.610;23.040;2023-04-03T13:42:31;2.63;;;2.43;;
10479;SDS011;12789;42.610;23.040;2023-04-03T13:45:16;4.13;;;2.77;;
10479;SDS011;12789;42.610;23.040;2023-04-03T13:47:43;3.47;;;3.13;;
10479;SDS011;12789;42.610;23.040;2023-04-03T13:50:15;7.20;;;3.27;;
10479;SDS011;12789;42.610;23.040;2023-04-03T13:52:45;6.83;;;4.60;;
10479;SDS011;12789;42.610;23.040;2023-04-03T13:55:17;8.17;;;5.30;;
10479;SDS011;12789;42.610;23.040;2023-04-03T13:57:52;8.57;;;5.20;;
10479;SDS011;12789;42.610;23.040;2023-04-03T14:00:31;3.70;;;3.30;;
10479;SDS011;12789;42.610;23.040;2023-04-03T14:02:59;7.67;;;5.83;;
10479;SDS011;12789;42.610;23.040;2023-04-03T14:05:25;3.80;;;3.00;;
10479;SDS011;12789;42.610;23.040;2023-04-03T14:07:54;3.30;;;2.80;;
10479;SDS011;12789;42.610;23.040;2023-04-03T14:10:25;3.67;;;2.80;;
10479;SDS011;12789;42.610;23.040;2023-04-03T14:12:53;4.47;;;3.87;;
10479;SDS011;12789;42.610;23.040;2023-04-03T14:15:22;2.60;;;2.40;;
10479;SDS011;12789;42.610;23.040;2023-04-03T14:17:51;3.10;;;2.80;;
10479;SDS011;12789;42.610;23.040;2023-04-03T14:20:19;4.27;;;2.90;;
10479;SDS011;12789;42.610;23.040;2023-04-03T14:22:46;2.33;;;2.13;;
10479;SDS011;12789;42.610;23.040;2023-04-03T14:25:13;3.03;;;2.73;;
10479;SDS011;12789;42.610;23.040;2023-04-03T14:27:41;3.87;;;3.20;;
10479;SDS011;12789;42.610;23.040;2023-04-03T14:30:09;3.13;;;2.83;;
10479;SDS011;12789;42.610;23.040;2023-04-03T14:32:38;2.30;;;2.00;;
10479;SDS011;12789;42.610;23.040;2023-04-03T14:35:06;2.97;;;2.77;;
10479;SDS011;12789;42.610;23.040;2023-04-03T14:37:33;2.50;;;2.30;;